Ijamsville, Maryland
Current Conditions -  °F | °C
As of 4:45 PM on Wednesday 28 Jan 2015 (Local Time) from KFDK Reporting Station
Clear Clear  
Wind Chill: 29°   Ceiling: Unl
Heat Index: 34°   Visibility: 10mi
Dew Point:   Wind: 6mph
Humidity: 28%   Direction: 320°NW
Pressure: 30.29"   Gusts: NA
Location:  39.36°N, 77.32°W
Report Text: KFDK 282145Z 32005KT 10SM SKC 01/M16 A3029
Loading
Personal Weather Stations






























Interactive Weather Map New forecast layout! Learn more

10-Day Weather Forecast

Advertisements
Track Severe Weather on mobile